sensor_id;sensor_type;location;lat;lon;timestamp;P1;durP1;ratioP1;P2;durP2;ratioP2
21237;SDS011;10777;50.828;3.264;2022-07-23T00:00:53;13.07;;;7.70;;
21237;SDS011;10777;50.828;3.264;2022-07-23T00:03:18;14.67;;;8.97;;
21237;SDS011;10777;50.828;3.264;2022-07-23T00:05:44;13.23;;;8.50;;
21237;SDS011;10777;50.828;3.264;2022-07-23T00:08:10;15.00;;;7.87;;
21237;SDS011;10777;50.828;3.264;2022-07-23T00:10:35;14.73;;;8.77;;
21237;SDS011;10777;50.828;3.264;2022-07-23T00:13:01;14.17;;;8.07;;
21237;SDS011;10777;50.828;3.264;2022-07-23T00:15:27;14.87;;;8.23;;
21237;SDS011;10777;50.828;3.264;2022-07-23T00:17:52;16.73;;;10.57;;
21237;SDS011;10777;50.828;3.264;2022-07-23T00:20:18;11.50;;;8.80;;
21237;SDS011;10777;50.828;3.264;2022-07-23T00:22:48;14.50;;;9.27;;
21237;SDS011;10777;50.828;3.264;2022-07-23T00:25:16;12.43;;;8.43;;
21237;SDS011;10777;50.828;3.264;2022-07-23T00:27:42;12.77;;;8.07;;
21237;SDS011;10777;50.828;3.264;2022-07-23T00:30:07;15.20;;;7.93;;
21237;SDS011;10777;50.828;3.264;2022-07-23T00:32:50;18.20;;;8.60;;
21237;SDS011;10777;50.828;3.264;2022-07-23T00:35:19;10.43;;;7.60;;
21237;SDS011;10777;50.828;3.264;2022-07-23T00:37:46;13.17;;;8.23;;
21237;SDS011;10777;50.828;3.264;2022-07-23T00:40:12;14.57;;;7.70;;
21237;SDS011;10777;50.828;3.264;2022-07-23T00:42:39;12.73;;;8.73;;
21237;SDS011;10777;50.828;3.264;2022-07-23T00:45:05;16.23;;;8.43;;
21237;SDS011;10777;50.828;3.264;2022-07-23T00:47:32;11.70;;;8.17;;
21237;SDS011;10777;50.828;3.264;2022-07-23T00:49:58;12.87;;;8.47;;
21237;SDS011;10777;50.828;3.264;2022-07-23T00:52:23;12.07;;;8.07;;
21237;SDS011;10777;50.828;3.264;2022-07-23T00:54:50;16.67;;;8.30;;
21237;SDS011;10777;50.828;3.264;2022-07-23T00:57:17;13.63;;;8.40;;
21237;SDS011;10777;50.828;3.264;2022-07-23T00:59:43;14.77;;;8.43;;
21237;SDS011;10777;50.828;3.264;2022-07-23T01:02:09;14.00;;;8.27;;
21237;SDS011;10777;50.828;3.264;2022-07-23T01:04:34;11.43;;;7.77;;
21237;SDS011;10777;50.828;3.264;2022-07-23T01:07:00;15.47;;;8.13;;
21237;SDS011;10777;50.828;3.264;2022-07-23T01:09:27;17.23;;;8.90;;
21237;SDS011;10777;50.828;3.264;2022-07-23T01:11:54;16.00;;;8.87;;
21237;SDS011;10777;50.828;3.264;2022-07-23T01:14:20;15.33;;;8.60;;
21237;SDS011;10777;50.828;3.264;2022-07-23T01:16:48;15.00;;;8.27;;
21237;SDS011;10777;50.828;3.264;2022-07-23T01:19:15;12.20;;;8.23;;
21237;SDS011;10777;50.828;3.264;2022-07-23T01:21:42;16.57;;;8.70;;
21237;SDS011;10777;50.828;3.264;2022-07-23T01:24:10;13.93;;;9.50;;
21237;SDS011;10777;50.828;3.264;2022-07-23T01:26:36;12.90;;;8.93;;
21237;SDS011;10777;50.828;3.264;2022-07-23T01:29:03;15.43;;;9.30;;
21237;SDS011;10777;50.828;3.264;2022-07-23T01:31:29;13.60;;;9.17;;
21237;SDS011;10777;50.828;3.264;2022-07-23T01:33:56;15.00;;;9.43;;
21237;SDS011;10777;50.828;3.264;2022-07-23T01:36:22;16.30;;;10.17;;
21237;SDS011;10777;50.828;3.264;2022-07-23T01:38:49;13.77;;;8.80;;
21237;SDS011;10777;50.828;3.264;2022-07-23T01:41:15;16.50;;;10.03;;
21237;SDS011;10777;50.828;3.264;2022-07-23T01:43:41;12.43;;;9.47;;
21237;SDS011;10777;50.828;3.264;2022-07-23T01:46:07;17.67;;;10.17;;
21237;SDS011;10777;50.828;3.264;2022-07-23T01:48:32;18.13;;;10.47;;
21237;SDS011;10777;50.828;3.264;2022-07-23T01:50:58;17.37;;;9.67;;
21237;SDS011;10777;50.828;3.264;2022-07-23T01:53:24;14.80;;;9.70;;
21237;SDS011;10777;50.828;3.264;2022-07-23T01:55:50;17.93;;;9.73;;
21237;SDS011;10777;50.828;3.264;2022-07-23T01:58:15;13.93;;;9.37;;
21237;SDS011;10777;50.828;3.264;2022-07-23T02:00:41;15.20;;;10.33;;
21237;SDS011;10777;50.828;3.264;2022-07-23T02:03:07;16.93;;;10.00;;
21237;SDS011;10777;50.828;3.264;2022-07-23T02:05:32;13.33;;;9.30;;
21237;SDS011;10777;50.828;3.264;2022-07-23T02:07:58;18.83;;;9.77;;
21237;SDS011;10777;50.828;3.264;2022-07-23T02:10:25;18.20;;;9.30;;
21237;SDS011;10777;50.828;3.264;2022-07-23T02:12:51;14.67;;;10.13;;
21237;SDS011;10777;50.828;3.264;2022-07-23T02:15:17;12.70;;;9.77;;
21237;SDS011;10777;50.828;3.264;2022-07-23T02:17:43;15.57;;;11.03;;
21237;SDS011;10777;50.828;3.264;2022-07-23T02:20:09;18.27;;;10.30;;
21237;SDS011;10777;50.828;3.264;2022-07-23T02:22:36;18.17;;;10.63;;
21237;SDS011;10777;50.828;3.264;2022-07-23T02:25:03;17.37;;;10.70;;
21237;SDS011;10777;50.828;3.264;2022-07-23T02:27:29;14.63;;;10.97;;
21237;SDS011;10777;50.828;3.264;2022-07-23T02:29:55;17.40;;;10.83;;
21237;SDS011;10777;50.828;3.264;2022-07-23T02:32:22;20.93;;;11.00;;
21237;SDS011;10777;50.828;3.264;2022-07-23T02:34:48;19.07;;;11.30;;
21237;SDS011;10777;50.828;3.264;2022-07-23T02:37:14;13.70;;;10.97;;
21237;SDS011;10777;50.828;3.264;2022-07-23T02:39:39;17.17;;;10.70;;
21237;SDS011;10777;50.828;3.264;2022-07-23T02:42:05;19.83;;;11.10;;
21237;SDS011;10777;50.828;3.264;2022-07-23T02:44:31;18.73;;;10.87;;
21237;SDS011;10777;50.828;3.264;2022-07-23T02:46:57;14.90;;;10.97;;
21237;SDS011;10777;50.828;3.264;2022-07-23T02:49:22;15.87;;;10.93;;
21237;SDS011;10777;50.828;3.264;2022-07-23T02:51:48;21.90;;;11.47;;
21237;SDS011;10777;50.828;3.264;2022-07-23T02:54:14;15.67;;;10.80;;
21237;SDS011;10777;50.828;3.264;2022-07-23T02:56:39;16.47;;;10.60;;
21237;SDS011;10777;50.828;3.264;2022-07-23T02:59:05;18.37;;;11.50;;
21237;SDS011;10777;50.828;3.264;2022-07-23T03:01:31;17.80;;;11.47;;
21237;SDS011;10777;50.828;3.264;2022-07-23T03:03:57;16.37;;;11.27;;
21237;SDS011;10777;50.828;3.264;2022-07-23T03:06:22;16.07;;;11.47;;
21237;SDS011;10777;50.828;3.264;2022-07-23T03:08:48;19.00;;;11.27;;
21237;SDS011;10777;50.828;3.264;2022-07-23T03:11:14;16.73;;;10.80;;
21237;SDS011;10777;50.828;3.264;2022-07-23T03:13:40;19.07;;;11.63;;
21237;SDS011;10777;50.828;3.264;2022-07-23T03:16:06;23.07;;;11.23;;
21237;SDS011;10777;50.828;3.264;2022-07-23T03:18:32;16.53;;;10.90;;
21237;SDS011;10777;50.828;3.264;2022-07-23T03:20:58;16.57;;;10.60;;
21237;SDS011;10777;50.828;3.264;2022-07-23T03:23:24;17.00;;;10.80;;
21237;SDS011;10777;50.828;3.264;2022-07-23T03:25:50;20.23;;;10.40;;
21237;SDS011;10777;50.828;3.264;2022-07-23T03:28:16;12.83;;;10.13;;
21237;SDS011;10777;50.828;3.264;2022-07-23T03:30:43;18.60;;;11.03;;
21237;SDS011;10777;50.828;3.264;2022-07-23T03:33:13;20.57;;;12.60;;
21237;SDS011;10777;50.828;3.264;2022-07-23T03:35:39;16.60;;;11.23;;
21237;SDS011;10777;50.828;3.264;2022-07-23T03:38:05;17.17;;;11.53;;
21237;SDS011;10777;50.828;3.264;2022-07-23T03:40:31;17.40;;;11.17;;
21237;SDS011;10777;50.828;3.264;2022-07-23T03:42:56;14.97;;;10.57;;
21237;SDS011;10777;50.828;3.264;2022-07-23T03:45:22;18.87;;;11.33;;
21237;SDS011;10777;50.828;3.264;2022-07-23T03:47:48;15.73;;;10.97;;
21237;SDS011;10777;50.828;3.264;2022-07-23T03:50:13;14.43;;;11.37;;
21237;SDS011;10777;50.828;3.264;2022-07-23T03:52:39;19.50;;;11.27;;
21237;SDS011;10777;50.828;3.264;2022-07-23T03:55:05;17.60;;;11.53;;
21237;SDS011;10777;50.828;3.264;2022-07-23T03:57:32;18.87;;;11.17;;
21237;SDS011;10777;50.828;3.264;2022-07-23T03:59:58;17.67;;;11.67;;
21237;SDS011;10777;50.828;3.264;2022-07-23T04:02:24;16.63;;;11.40;;
21237;SDS011;10777;50.828;3.264;2022-07-23T04:04:50;17.17;;;11.00;;
21237;SDS011;10777;50.828;3.264;2022-07-23T04:07:16;24.57;;;11.73;;
21237;SDS011;10777;50.828;3.264;2022-07-23T04:09:42;15.27;;;11.73;;
21237;SDS011;10777;50.828;3.264;2022-07-23T04:12:09;19.97;;;12.37;;
21237;SDS011;10777;50.828;3.264;2022-07-23T04:14:34;17.77;;;11.60;;
21237;SDS011;10777;50.828;3.264;2022-07-23T04:17:00;15.23;;;12.03;;
21237;SDS011;10777;50.828;3.264;2022-07-23T04:19:26;24.70;;;13.20;;
21237;SDS011;10777;50.828;3.264;2022-07-23T04:21:52;17.87;;;12.10;;
21237;SDS011;10777;50.828;3.264;2022-07-23T04:24:18;37.10;;;14.43;;
21237;SDS011;10777;50.828;3.264;2022-07-23T04:26:44;24.70;;;13.07;;
21237;SDS011;10777;50.828;3.264;2022-07-23T04:29:10;27.23;;;13.63;;
21237;SDS011;10777;50.828;3.264;2022-07-23T04:31:36;17.53;;;12.70;;
21237;SDS011;10777;50.828;3.264;2022-07-23T04:34:01;26.67;;;13.57;;
21237;SDS011;10777;50.828;3.264;2022-07-23T04:36:27;21.93;;;13.57;;
21237;SDS011;10777;50.828;3.264;2022-07-23T04:38:53;22.80;;;12.40;;
21237;SDS011;10777;50.828;3.264;2022-07-23T04:41:20;18.23;;;11.33;;
21237;SDS011;10777;50.828;3.264;2022-07-23T04:43:45;22.17;;;13.17;;
21237;SDS011;10777;50.828;3.264;2022-07-23T04:46:11;21.67;;;13.80;;
21237;SDS011;10777;50.828;3.264;2022-07-23T04:48:37;20.37;;;13.73;;
21237;SDS011;10777;50.828;3.264;2022-07-23T04:51:03;20.30;;;13.90;;
21237;SDS011;10777;50.828;3.264;2022-07-23T04:53:29;21.30;;;14.33;;
21237;SDS011;10777;50.828;3.264;2022-07-23T04:55:54;18.13;;;12.83;;
21237;SDS011;10777;50.828;3.264;2022-07-23T04:58:20;24.40;;;14.33;;
21237;SDS011;10777;50.828;3.264;2022-07-23T05:00:46;21.17;;;13.47;;
21237;SDS011;10777;50.828;3.264;2022-07-23T05:03:12;24.63;;;14.40;;
21237;SDS011;10777;50.828;3.264;2022-07-23T05:05:38;21.43;;;14.37;;
21237;SDS011;10777;50.828;3.264;2022-07-23T05:08:03;25.50;;;13.90;;
21237;SDS011;10777;50.828;3.264;2022-07-23T05:10:29;20.30;;;13.77;;
21237;SDS011;10777;50.828;3.264;2022-07-23T05:12:55;20.90;;;14.30;;
21237;SDS011;10777;50.828;3.264;2022-07-23T05:15:21;20.97;;;13.53;;
21237;SDS011;10777;50.828;3.264;2022-07-23T05:17:48;19.17;;;14.27;;
21237;SDS011;10777;50.828;3.264;2022-07-23T05:20:14;19.40;;;14.43;;
21237;SDS011;10777;50.828;3.264;2022-07-23T05:22:40;22.20;;;14.33;;
21237;SDS011;10777;50.828;3.264;2022-07-23T05:25:06;22.97;;;14.07;;
21237;SDS011;10777;50.828;3.264;2022-07-23T05:27:32;22.53;;;13.40;;
21237;SDS011;10777;50.828;3.264;2022-07-23T05:29:58;21.40;;;13.50;;
21237;SDS011;10777;50.828;3.264;2022-07-23T05:32:26;21.97;;;12.90;;
21237;SDS011;10777;50.828;3.264;2022-07-23T05:34:52;23.17;;;13.07;;
21237;SDS011;10777;50.828;3.264;2022-07-23T05:37:17;18.83;;;13.07;;
21237;SDS011;10777;50.828;3.264;2022-07-23T05:39:43;27.33;;;13.63;;
21237;SDS011;10777;50.828;3.264;2022-07-23T05:42:09;22.33;;;13.97;;
21237;SDS011;10777;50.828;3.264;2022-07-23T05:44:35;25.27;;;13.63;;
21237;SDS011;10777;50.828;3.264;2022-07-23T05:47:01;27.97;;;14.03;;
21237;SDS011;10777;50.828;3.264;2022-07-23T05:49:27;19.13;;;12.87;;
21237;SDS011;10777;50.828;3.264;2022-07-23T05:51:53;24.33;;;13.90;;
21237;SDS011;10777;50.828;3.264;2022-07-23T05:54:18;19.60;;;13.40;;
21237;SDS011;10777;50.828;3.264;2022-07-23T05:56:44;22.33;;;12.73;;
21237;SDS011;10777;50.828;3.264;2022-07-23T05:59:10;21.38;;;12.32;;
21237;SDS011;10777;50.828;3.264;2022-07-23T06:01:37;18.07;;;12.73;;
21237;SDS011;10777;50.828;3.264;2022-07-23T06:04:03;17.30;;;12.10;;
21237;SDS011;10777;50.828;3.264;2022-07-23T06:06:29;19.27;;;12.25;;
21237;SDS011;10777;50.828;3.264;2022-07-23T06:08:55;25.63;;;13.27;;
21237;SDS011;10777;50.828;3.264;2022-07-23T06:11:20;18.50;;;12.73;;
21237;SDS011;10777;50.828;3.264;2022-07-23T06:13:46;17.07;;;12.07;;
21237;SDS011;10777;50.828;3.264;2022-07-23T06:16:12;19.00;;;13.63;;
21237;SDS011;10777;50.828;3.264;2022-07-23T06:18:37;18.77;;;13.57;;
21237;SDS011;10777;50.828;3.264;2022-07-23T06:21:03;22.63;;;12.32;;
21237;SDS011;10777;50.828;3.264;2022-07-23T06:23:28;17.80;;;12.48;;
21237;SDS011;10777;50.828;3.264;2022-07-23T06:25:54;20.45;;;12.45;;
21237;SDS011;10777;50.828;3.264;2022-07-23T06:28:20;17.77;;;12.75;;
21237;SDS011;10777;50.828;3.264;2022-07-23T06:30:45;22.90;;;12.98;;
21237;SDS011;10777;50.828;3.264;2022-07-23T06:33:11;18.20;;;12.48;;
21237;SDS011;10777;50.828;3.264;2022-07-23T06:35:37;18.58;;;12.05;;
21237;SDS011;10777;50.828;3.264;2022-07-23T06:38:03;20.52;;;12.18;;
21237;SDS011;10777;50.828;3.264;2022-07-23T06:40:28;21.35;;;11.85;;
21237;SDS011;10777;50.828;3.264;2022-07-23T06:42:54;23.33;;;12.20;;
21237;SDS011;10777;50.828;3.264;2022-07-23T06:45:20;17.95;;;12.38;;
21237;SDS011;10777;50.828;3.264;2022-07-23T06:47:46;17.75;;;12.18;;
21237;SDS011;10777;50.828;3.264;2022-07-23T06:50:11;21.00;;;12.15;;
21237;SDS011;10777;50.828;3.264;2022-07-23T06:52:37;20.58;;;12.55;;
21237;SDS011;10777;50.828;3.264;2022-07-23T06:55:03;20.65;;;12.18;;
21237;SDS011;10777;50.828;3.264;2022-07-23T06:57:29;18.67;;;12.60;;
21237;SDS011;10777;50.828;3.264;2022-07-23T06:59:54;20.65;;;12.40;;
21237;SDS011;10777;50.828;3.264;2022-07-23T07:02:20;20.45;;;12.63;;
21237;SDS011;10777;50.828;3.264;2022-07-23T07:04:46;23.10;;;11.93;;
21237;SDS011;10777;50.828;3.264;2022-07-23T07:07:11;21.90;;;12.43;;
21237;SDS011;10777;50.828;3.264;2022-07-23T07:09:37;23.75;;;12.27;;
21237;SDS011;10777;50.828;3.264;2022-07-23T07:12:03;18.92;;;11.73;;
21237;SDS011;10777;50.828;3.264;2022-07-23T07:14:29;18.10;;;12.18;;
21237;SDS011;10777;50.828;3.264;2022-07-23T07:16:55;19.70;;;12.13;;
21237;SDS011;10777;50.828;3.264;2022-07-23T07:19:20;19.70;;;11.45;;
21237;SDS011;10777;50.828;3.264;2022-07-23T07:21:46;23.58;;;12.07;;
21237;SDS011;10777;50.828;3.264;2022-07-23T07:24:12;19.33;;;12.10;;
21237;SDS011;10777;50.828;3.264;2022-07-23T07:26:38;20.20;;;12.37;;
21237;SDS011;10777;50.828;3.264;2022-07-23T07:29:04;15.70;;;11.80;;
21237;SDS011;10777;50.828;3.264;2022-07-23T07:31:30;19.07;;;12.03;;
21237;SDS011;10777;50.828;3.264;2022-07-23T07:33:56;22.65;;;12.40;;
21237;SDS011;10777;50.828;3.264;2022-07-23T07:36:23;17.70;;;12.00;;
21237;SDS011;10777;50.828;3.264;2022-07-23T07:38:48;20.52;;;11.55;;
21237;SDS011;10777;50.828;3.264;2022-07-23T07:41:14;18.33;;;11.40;;
21237;SDS011;10777;50.828;3.264;2022-07-23T07:43:40;17.67;;;11.30;;
21237;SDS011;10777;50.828;3.264;2022-07-23T07:46:06;17.00;;;10.70;;
21237;SDS011;10777;50.828;3.264;2022-07-23T07:48:35;19.40;;;12.02;;
21237;SDS011;10777;50.828;3.264;2022-07-23T07:51:01;18.55;;;12.60;;
21237;SDS011;10777;50.828;3.264;2022-07-23T07:53:28;17.35;;;12.35;;
21237;SDS011;10777;50.828;3.264;2022-07-23T07:55:54;22.73;;;12.85;;
21237;SDS011;10777;50.828;3.264;2022-07-23T07:58:21;21.63;;;12.55;;
21237;SDS011;10777;50.828;3.264;2022-07-23T08:00:46;19.27;;;12.65;;
21237;SDS011;10777;50.828;3.264;2022-07-23T08:03:12;17.70;;;11.50;;
21237;SDS011;10777;50.828;3.264;2022-07-23T08:05:38;25.35;;;12.45;;
21237;SDS011;10777;50.828;3.264;2022-07-23T08:08:03;19.65;;;13.25;;
21237;SDS011;10777;50.828;3.264;2022-07-23T08:10:30;19.42;;;12.07;;
21237;SDS011;10777;50.828;3.264;2022-07-23T08:12:56;17.02;;;11.52;;
21237;SDS011;10777;50.828;3.264;2022-07-23T08:15:24;19.55;;;11.70;;
21237;SDS011;10777;50.828;3.264;2022-07-23T08:17:52;22.27;;;11.48;;
21237;SDS011;10777;50.828;3.264;2022-07-23T08:20:19;23.10;;;12.82;;
21237;SDS011;10777;50.828;3.264;2022-07-23T08:22:48;16.52;;;11.25;;
21237;SDS011;10777;50.828;3.264;2022-07-23T08:25:20;17.70;;;11.88;;
21237;SDS011;10777;50.828;3.264;2022-07-23T08:27:49;18.85;;;10.60;;
21237;SDS011;10777;50.828;3.264;2022-07-23T08:30:15;18.52;;;12.88;;
21237;SDS011;10777;50.828;3.264;2022-07-23T08:32:49;21.08;;;12.10;;
21237;SDS011;10777;50.828;3.264;2022-07-23T08:35:27;15.45;;;10.88;;
21237;SDS011;10777;50.828;3.264;2022-07-23T08:37:56;18.65;;;11.32;;
21237;SDS011;10777;50.828;3.264;2022-07-23T08:40:25;20.70;;;11.20;;
21237;SDS011;10777;50.828;3.264;2022-07-23T08:42:52;19.30;;;12.00;;
21237;SDS011;10777;50.828;3.264;2022-07-23T08:45:19;21.15;;;12.15;;
21237;SDS011;10777;50.828;3.264;2022-07-23T08:47:48;20.90;;;11.98;;
21237;SDS011;10777;50.828;3.264;2022-07-23T08:50:15;18.20;;;11.63;;
21237;SDS011;10777;50.828;3.264;2022-07-23T08:52:41;21.83;;;11.13;;
21237;SDS011;10777;50.828;3.264;2022-07-23T08:55:07;25.67;;;16.55;;
21237;SDS011;10777;50.828;3.264;2022-07-23T08:57:33;19.73;;;11.02;;
21237;SDS011;10777;50.828;3.264;2022-07-23T08:59:59;17.20;;;10.98;;
21237;SDS011;10777;50.828;3.264;2022-07-23T09:02:25;17.08;;;10.30;;
21237;SDS011;10777;50.828;3.264;2022-07-23T09:04:50;15.88;;;10.77;;
21237;SDS011;10777;50.828;3.264;2022-07-23T09:07:16;20.88;;;10.35;;
21237;SDS011;10777;50.828;3.264;2022-07-23T09:09:42;17.77;;;10.35;;
21237;SDS011;10777;50.828;3.264;2022-07-23T09:12:09;18.15;;;9.52;;
21237;SDS011;10777;50.828;3.264;2022-07-23T09:14:36;14.27;;;9.45;;
21237;SDS011;10777;50.828;3.264;2022-07-23T09:17:13;14.93;;;8.95;;
21237;SDS011;10777;50.828;3.264;2022-07-23T09:19:42;16.90;;;8.98;;
21237;SDS011;10777;50.828;3.264;2022-07-23T09:22:26;15.35;;;8.73;;
21237;SDS011;10777;50.828;3.264;2022-07-23T09:27:58;22.08;;;10.27;;
21237;SDS011;10777;50.828;3.264;2022-07-23T09:30:28;14.32;;;10.02;;
21237;SDS011;10777;50.828;3.264;2022-07-23T09:33:11;13.27;;;9.13;;
21237;SDS011;10777;50.828;3.264;2022-07-23T09:35:44;17.77;;;9.85;;
21237;SDS011;10777;50.828;3.264;2022-07-23T09:38:22;15.27;;;9.00;;
21237;SDS011;10777;50.828;3.264;2022-07-23T09:43:35;16.25;;;10.38;;
21237;SDS011;10777;50.828;3.264;2022-07-23T09:48:49;21.05;;;11.60;;
21237;SDS011;10777;50.828;3.264;2022-07-23T09:51:17;16.02;;;9.23;;
21237;SDS011;10777;50.828;3.264;2022-07-23T09:53:50;15.30;;;9.55;;
21237;SDS011;10777;50.828;3.264;2022-07-23T09:56:16;17.58;;;10.23;;
21237;SDS011;10777;50.828;3.264;2022-07-23T09:58:43;18.98;;;8.93;;
21237;SDS011;10777;50.828;3.264;2022-07-23T10:01:19;18.58;;;9.60;;
21237;SDS011;10777;50.828;3.264;2022-07-23T10:03:52;10.60;;;7.97;;
21237;SDS011;10777;50.828;3.264;2022-07-23T10:06:17;15.48;;;8.77;;
21237;SDS011;10777;50.828;3.264;2022-07-23T10:08:43;14.85;;;8.45;;
21237;SDS011;10777;50.828;3.264;2022-07-23T10:11:13;13.50;;;8.85;;
21237;SDS011;10777;50.828;3.264;2022-07-23T10:13:39;16.15;;;8.82;;
21237;SDS011;10777;50.828;3.264;2022-07-23T10:16:23;14.73;;;7.90;;
21237;SDS011;10777;50.828;3.264;2022-07-23T10:18:48;16.05;;;8.55;;
21237;SDS011;10777;50.828;3.264;2022-07-23T10:21:24;12.07;;;8.52;;
21237;SDS011;10777;50.828;3.264;2022-07-23T10:24:28;13.80;;;8.98;;
21237;SDS011;10777;50.828;3.264;2022-07-23T10:30:25;18.38;;;8.85;;
21237;SDS011;10777;50.828;3.264;2022-07-23T10:36:01;10.93;;;7.30;;
21237;SDS011;10777;50.828;3.264;2022-07-23T10:38:45;12.40;;;7.75;;
21237;SDS011;10777;50.828;3.264;2022-07-23T10:41:39;12.30;;;7.53;;
21237;SDS011;10777;50.828;3.264;2022-07-23T10:44:07;13.45;;;8.65;;
21237;SDS011;10777;50.828;3.264;2022-07-23T10:46:34;13.48;;;7.90;;
21237;SDS011;10777;50.828;3.264;2022-07-23T10:49:21;14.43;;;7.80;;
21237;SDS011;10777;50.828;3.264;2022-07-23T10:52:17;14.10;;;7.80;;
21237;SDS011;10777;50.828;3.264;2022-07-23T10:54:46;11.93;;;8.30;;
21237;SDS011;10777;50.828;3.264;2022-07-23T10:57:16;10.35;;;7.80;;
21237;SDS011;10777;50.828;3.264;2022-07-23T11:02:38;13.85;;;7.25;;
21237;SDS011;10777;50.828;3.264;2022-07-23T11:05:06;17.25;;;7.07;;
21237;SDS011;10777;50.828;3.264;2022-07-23T11:07:34;12.45;;;7.47;;
21237;SDS011;10777;50.828;3.264;2022-07-23T11:10:02;13.70;;;7.82;;
21237;SDS011;10777;50.828;3.264;2022-07-23T11:12:32;16.00;;;7.75;;
21237;SDS011;10777;50.828;3.264;2022-07-23T11:15:13;12.70;;;8.23;;
21237;SDS011;10777;50.828;3.264;2022-07-23T11:20:26;12.90;;;6.63;;
21237;SDS011;10777;50.828;3.264;2022-07-23T11:22:54;14.70;;;7.30;;
21237;SDS011;10777;50.828;3.264;2022-07-23T11:25:31;8.85;;;6.28;;
21237;SDS011;10777;50.828;3.264;2022-07-23T11:28:15;13.30;;;8.40;;
21237;SDS011;10777;50.828;3.264;2022-07-23T11:30:45;9.98;;;6.10;;
21237;SDS011;10777;50.828;3.264;2022-07-23T11:33:17;10.48;;;5.78;;
21237;SDS011;10777;50.828;3.264;2022-07-23T11:35:49;10.85;;;6.90;;
21237;SDS011;10777;50.828;3.264;2022-07-23T11:38:25;12.00;;;7.25;;
21237;SDS011;10777;50.828;3.264;2022-07-23T11:40:52;11.57;;;7.78;;
21237;SDS011;10777;50.828;3.264;2022-07-23T11:43:20;13.98;;;7.88;;
21237;SDS011;10777;50.828;3.264;2022-07-23T11:45:47;11.13;;;7.50;;
21237;SDS011;10777;50.828;3.264;2022-07-23T11:48:24;14.00;;;8.02;;
21237;SDS011;10777;50.828;3.264;2022-07-23T11:50:51;13.10;;;7.97;;
21237;SDS011;10777;50.828;3.264;2022-07-23T11:53:22;17.42;;;8.65;;
21237;SDS011;10777;50.828;3.264;2022-07-23T11:55:50;13.23;;;8.07;;
21237;SDS011;10777;50.828;3.264;2022-07-23T11:58:16;11.63;;;6.72;;
21237;SDS011;10777;50.828;3.264;2022-07-23T12:00:42;13.60;;;8.68;;
21237;SDS011;10777;50.828;3.264;2022-07-23T12:03:08;15.30;;;10.52;;
21237;SDS011;10777;50.828;3.264;2022-07-23T12:05:35;14.07;;;9.63;;
21237;SDS011;10777;50.828;3.264;2022-07-23T12:08:03;16.80;;;9.20;;
21237;SDS011;10777;50.828;3.264;2022-07-23T12:10:39;12.07;;;9.30;;
21237;SDS011;10777;50.828;3.264;2022-07-23T12:13:08;18.48;;;8.65;;
21237;SDS011;10777;50.828;3.264;2022-07-23T12:15:38;17.42;;;7.78;;
21237;SDS011;10777;50.828;3.264;2022-07-23T12:18:07;12.95;;;7.78;;
21237;SDS011;10777;50.828;3.264;2022-07-23T12:20:37;15.88;;;7.40;;
21237;SDS011;10777;50.828;3.264;2022-07-23T12:23:07;12.05;;;8.35;;
21237;SDS011;10777;50.828;3.264;2022-07-23T12:25:35;14.32;;;6.95;;
21237;SDS011;10777;50.828;3.264;2022-07-23T12:28:05;17.23;;;7.65;;
21237;SDS011;10777;50.828;3.264;2022-07-23T12:30:34;10.00;;;6.60;;
21237;SDS011;10777;50.828;3.264;2022-07-23T12:33:24;14.27;;;7.88;;
21237;SDS011;10777;50.828;3.264;2022-07-23T12:36:07;13.30;;;7.35;;
21237;SDS011;10777;50.828;3.264;2022-07-23T12:38:39;9.82;;;6.88;;
21237;SDS011;10777;50.828;3.264;2022-07-23T12:41:06;12.00;;;7.03;;
21237;SDS011;10777;50.828;3.264;2022-07-23T12:43:33;14.57;;;7.50;;
21237;SDS011;10777;50.828;3.264;2022-07-23T12:46:08;20.08;;;10.48;;
21237;SDS011;10777;50.828;3.264;2022-07-23T12:48:38;16.98;;;9.63;;
21237;SDS011;10777;50.828;3.264;2022-07-23T12:51:17;11.63;;;6.60;;
21237;SDS011;10777;50.828;3.264;2022-07-23T12:53:46;9.45;;;5.68;;
21237;SDS011;10777;50.828;3.264;2022-07-23T12:56:14;7.70;;;5.65;;
21237;SDS011;10777;50.828;3.264;2022-07-23T12:58:44;16.65;;;6.78;;
21237;SDS011;10777;50.828;3.264;2022-07-23T13:01:28;14.02;;;6.03;;
21237;SDS011;10777;50.828;3.264;2022-07-23T13:06:46;7.82;;;5.28;;
21237;SDS011;10777;50.828;3.264;2022-07-23T13:09:16;9.60;;;5.50;;
21237;SDS011;10777;50.828;3.264;2022-07-23T13:11:44;9.80;;;5.30;;
21237;SDS011;10777;50.828;3.264;2022-07-23T13:14:11;11.15;;;6.45;;
21237;SDS011;10777;50.828;3.264;2022-07-23T13:16:37;10.35;;;5.95;;
21237;SDS011;10777;50.828;3.264;2022-07-23T13:19:03;7.72;;;5.80;;
21237;SDS011;10777;50.828;3.264;2022-07-23T13:21:30;9.65;;;7.22;;
21237;SDS011;10777;50.828;3.264;2022-07-23T13:23:56;8.95;;;5.50;;
21237;SDS011;10777;50.828;3.264;2022-07-23T13:26:22;11.25;;;5.90;;
21237;SDS011;10777;50.828;3.264;2022-07-23T13:28:48;7.55;;;6.03;;
21237;SDS011;10777;50.828;3.264;2022-07-23T13:31:15;9.98;;;6.63;;
21237;SDS011;10777;50.828;3.264;2022-07-23T13:33:42;8.75;;;5.90;;
21237;SDS011;10777;50.828;3.264;2022-07-23T13:36:07;9.82;;;5.55;;
21237;SDS011;10777;50.828;3.264;2022-07-23T13:38:33;8.70;;;6.65;;
21237;SDS011;10777;50.828;3.264;2022-07-23T13:40:59;10.23;;;5.50;;
21237;SDS011;10777;50.828;3.264;2022-07-23T13:43:25;16.50;;;5.10;;
21237;SDS011;10777;50.828;3.264;2022-07-23T13:45:52;9.25;;;5.63;;
21237;SDS011;10777;50.828;3.264;2022-07-23T13:48:18;7.68;;;5.32;;
21237;SDS011;10777;50.828;3.264;2022-07-23T13:50:45;8.20;;;5.22;;
21237;SDS011;10777;50.828;3.264;2022-07-23T13:53:15;7.93;;;5.05;;
21237;SDS011;10777;50.828;3.264;2022-07-23T13:55:42;9.57;;;5.47;;
21237;SDS011;10777;50.828;3.264;2022-07-23T13:58:09;10.95;;;5.38;;
21237;SDS011;10777;50.828;3.264;2022-07-23T14:00:36;5.40;;;4.85;;
21237;SDS011;10777;50.828;3.264;2022-07-23T14:03:04;8.20;;;4.88;;
21237;SDS011;10777;50.828;3.264;2022-07-23T14:05:30;11.77;;;4.65;;
21237;SDS011;10777;50.828;3.264;2022-07-23T14:07:56;7.57;;;4.50;;
21237;SDS011;10777;50.828;3.264;2022-07-23T14:10:22;6.50;;;4.38;;
21237;SDS011;10777;50.828;3.264;2022-07-23T14:12:49;5.63;;;4.35;;
21237;SDS011;10777;50.828;3.264;2022-07-23T14:15:16;5.88;;;4.28;;
21237;SDS011;10777;50.828;3.264;2022-07-23T14:17:43;6.43;;;4.18;;
21237;SDS011;10777;50.828;3.264;2022-07-23T14:20:10;6.40;;;4.72;;
21237;SDS011;10777;50.828;3.264;2022-07-23T14:22:37;7.78;;;4.13;;
21237;SDS011;10777;50.828;3.264;2022-07-23T14:25:04;8.82;;;4.53;;
21237;SDS011;10777;50.828;3.264;2022-07-23T14:27:31;11.93;;;5.55;;
21237;SDS011;10777;50.828;3.264;2022-07-23T14:29:57;10.55;;;4.93;;
21237;SDS011;10777;50.828;3.264;2022-07-23T14:32:23;7.68;;;5.15;;
21237;SDS011;10777;50.828;3.264;2022-07-23T14:34:49;8.43;;;4.72;;
21237;SDS011;10777;50.828;3.264;2022-07-23T14:37:15;8.07;;;4.85;;
21237;SDS011;10777;50.828;3.264;2022-07-23T14:39:42;7.72;;;4.35;;
21237;SDS011;10777;50.828;3.264;2022-07-23T14:42:08;9.27;;;4.82;;
21237;SDS011;10777;50.828;3.264;2022-07-23T14:44:34;6.55;;;4.15;;
21237;SDS011;10777;50.828;3.264;2022-07-23T14:47:02;7.68;;;5.07;;
21237;SDS011;10777;50.828;3.264;2022-07-23T14:49:29;6.85;;;4.82;;
21237;SDS011;10777;50.828;3.264;2022-07-23T14:51:55;8.60;;;4.50;;
21237;SDS011;10777;50.828;3.264;2022-07-23T14:54:21;6.22;;;4.55;;